sensor_id;sensor_type;location;lat;lon;timestamp;pressure;altitude;pressure_sealevel;temperature;humidity
10948;BME280;5526;42.070;24.752;2023-02-28T00:02:11;99466.44;;;11.15;80.60
10948;BME280;5526;42.070;24.752;2023-02-28T00:04:38;99465.44;;;11.21;80.55
10948;BME280;5526;42.070;24.752;2023-02-28T00:07:05;99463.59;;;11.21;80.11
10948;BME280;5526;42.070;24.752;2023-02-28T00:09:32;99461.53;;;11.23;79.89
10948;BME280;5526;42.070;24.752;2023-02-28T00:12:01;99471.03;;;11.24;79.42
10948;BME280;5526;42.070;24.752;2023-02-28T00:14:35;99469.94;;;11.20;79.23
10948;BME280;5526;42.070;24.752;2023-02-28T00:17:02;99475.91;;;11.16;79.48
10948;BME280;5526;42.070;24.752;2023-02-28T00:19:29;99477.00;;;10.98;80.83
10948;BME280;5526;42.070;24.752;2023-02-28T00:21:57;99474.09;;;10.78;82.50
10948;BME280;5526;42.070;24.752;2023-02-28T00:24:24;99466.94;;;10.74;83.19
10948;BME280;5526;42.070;24.752;2023-02-28T00:26:51;99467.81;;;10.79;83.13
10948;BME280;5526;42.070;24.752;2023-02-28T00:29:19;99467.13;;;10.89;82.29
10948;BME280;5526;42.070;24.752;2023-02-28T00:31:46;99465.56;;;10.88;82.28
10948;BME280;5526;42.070;24.752;2023-02-28T00:34:13;99458.13;;;10.85;82.29
10948;BME280;5526;42.070;24.752;2023-02-28T00:36:40;99458.72;;;10.70;82.86
10948;BME280;5526;42.070;24.752;2023-02-28T00:39:10;99456.41;;;10.74;82.46
10948;BME280;5526;42.070;24.752;2023-02-28T00:41:38;99462.78;;;10.78;82.22
10948;BME280;5526;42.070;24.752;2023-02-28T00:44:05;99467.63;;;10.86;81.66
10948;BME280;5526;42.070;24.752;2023-02-28T00:46:33;99473.50;;;10.93;81.52
10948;BME280;5526;42.070;24.752;2023-02-28T00:49:00;99476.72;;;10.95;80.85
10948;BME280;5526;42.070;24.752;2023-02-28T00:51:27;99467.13;;;10.89;80.50
10948;BME280;5526;42.070;24.752;2023-02-28T00:53:54;99470.13;;;10.76;80.37
10948;BME280;5526;42.070;24.752;2023-02-28T00:56:21;99485.06;;;10.70;79.96
10948;BME280;5526;42.070;24.752;2023-02-28T00:58:48;99483.78;;;10.73;79.73
10948;BME280;5526;42.070;24.752;2023-02-28T01:01:15;99470.38;;;10.74;79.70
10948;BME280;5526;42.070;24.752;2023-02-28T01:03:44;99481.13;;;10.73;79.51
10948;BME280;5526;42.070;24.752;2023-02-28T01:06:11;99484.53;;;10.68;80.00
10948;BME280;5526;42.070;24.752;2023-02-28T01:08:38;99483.72;;;10.68;79.69
10948;BME280;5526;42.070;24.752;2023-02-28T01:11:09;99481.88;;;10.68;79.78
10948;BME280;5526;42.070;24.752;2023-02-28T01:13:36;99486.81;;;10.65;80.51
10948;BME280;5526;42.070;24.752;2023-02-28T01:16:05;99494.78;;;10.70;80.67
10948;BME280;5526;42.070;24.752;2023-02-28T01:18:32;99500.03;;;10.70;80.31
10948;BME280;5526;42.070;24.752;2023-02-28T01:21:04;99497.50;;;10.58;80.80
10948;BME280;5526;42.070;24.752;2023-02-28T01:23:31;99500.38;;;10.57;81.04
10948;BME280;5526;42.070;24.752;2023-02-28T01:26:04;99499.56;;;10.56;81.22
10948;BME280;5526;42.070;24.752;2023-02-28T01:28:31;99501.91;;;10.53;81.40
10948;BME280;5526;42.070;24.752;2023-02-28T01:30:58;99508.84;;;10.42;82.90
10948;BME280;5526;42.070;24.752;2023-02-28T01:33:26;99514.50;;;10.34;83.42
10948;BME280;5526;42.070;24.752;2023-02-28T01:35:57;99511.63;;;10.19;85.19
10948;BME280;5526;42.070;24.752;2023-02-28T01:38:26;99521.25;;;10.14;85.57
10948;BME280;5526;42.070;24.752;2023-02-28T01:40:54;99534.91;;;9.99;87.21
10948;BME280;5526;42.070;24.752;2023-02-28T01:43:23;99541.72;;;9.84;88.54
10948;BME280;5526;42.070;24.752;2023-02-28T01:45:51;99546.94;;;9.67;91.87
10948;BME280;5526;42.070;24.752;2023-02-28T01:48:19;99547.47;;;9.81;91.24
10948;BME280;5526;42.070;24.752;2023-02-28T01:50:48;99554.53;;;9.80;92.37
10948;BME280;5526;42.070;24.752;2023-02-28T01:53:18;99554.78;;;9.79;93.25
10948;BME280;5526;42.070;24.752;2023-02-28T01:55:50;99548.00;;;9.83;94.16
10948;BME280;5526;42.070;24.752;2023-02-28T01:58:18;99552.16;;;9.79;94.72
10948;BME280;5526;42.070;24.752;2023-02-28T02:00:45;99527.66;;;9.62;94.31
10948;BME280;5526;42.070;24.752;2023-02-28T02:03:15;99562.06;;;9.88;95.06
10948;BME280;5526;42.070;24.752;2023-02-28T02:05:44;99552.81;;;9.86;94.79
10948;BME280;5526;42.070;24.752;2023-02-28T02:08:16;99562.13;;;9.93;94.19
10948;BME280;5526;42.070;24.752;2023-02-28T02:10:47;99561.38;;;9.93;93.98
10948;BME280;5526;42.070;24.752;2023-02-28T02:13:28;99571.88;;;9.93;94.26
10948;BME280;5526;42.070;24.752;2023-02-28T02:16:06;99570.91;;;9.99;93.92
10948;BME280;5526;42.070;24.752;2023-02-28T02:18:41;99569.88;;;10.00;93.50
10948;BME280;5526;42.070;24.752;2023-02-28T02:24:47;99564.44;;;9.90;94.23
10948;BME280;5526;42.070;24.752;2023-02-28T02:27:23;99565.00;;;9.92;94.13
10948;BME280;5526;42.070;24.752;2023-02-28T02:30:22;99574.59;;;9.98;93.70
10948;BME280;5526;42.070;24.752;2023-02-28T02:33:08;99577.31;;;10.03;93.17
10948;BME280;5526;42.070;24.752;2023-02-28T02:35:43;99572.44;;;10.06;93.19
10948;BME280;5526;42.070;24.752;2023-02-28T02:38:18;99568.28;;;10.10;92.34
10948;BME280;5526;42.070;24.752;2023-02-28T02:40:57;99570.69;;;10.12;92.79
10948;BME280;5526;42.070;24.752;2023-02-28T02:43:31;99573.31;;;10.12;92.67
10948;BME280;5526;42.070;24.752;2023-02-28T02:46:02;99584.84;;;10.11;92.85
10948;BME280;5526;42.070;24.752;2023-02-28T02:48:34;99581.09;;;10.07;92.40
10948;BME280;5526;42.070;24.752;2023-02-28T02:51:07;99597.06;;;10.17;92.21
10948;BME280;5526;42.070;24.752;2023-02-28T02:53:41;99594.00;;;10.08;94.03
10948;BME280;5526;42.070;24.752;2023-02-28T02:56:10;99606.47;;;10.01;94.90
10948;BME280;5526;42.070;24.752;2023-02-28T02:58:41;99613.72;;;9.94;97.04
10948;BME280;5526;42.070;24.752;2023-02-28T03:01:14;99609.06;;;9.85;100.00
10948;BME280;5526;42.070;24.752;2023-02-28T03:03:43;99605.75;;;9.78;100.00
10948;BME280;5526;42.070;24.752;2023-02-28T03:06:14;99613.72;;;9.83;100.00
10948;BME280;5526;42.070;24.752;2023-02-28T03:08:41;99609.97;;;9.79;100.00
10948;BME280;5526;42.070;24.752;2023-02-28T03:11:12;99622.06;;;9.80;100.00
10948;BME280;5526;42.070;24.752;2023-02-28T03:14:10;99610.09;;;9.72;100.00
10948;BME280;5526;42.070;24.752;2023-02-28T03:16:52;99613.66;;;9.66;100.00
10948;BME280;5526;42.070;24.752;2023-02-28T03:19:39;99627.69;;;9.72;100.00
10948;BME280;5526;42.070;24.752;2023-02-28T03:22:23;99617.31;;;9.65;100.00
10948;BME280;5526;42.070;24.752;2023-02-28T03:24:59;99628.63;;;9.66;100.00
10948;BME280;5526;42.070;24.752;2023-02-28T03:27:30;99628.28;;;9.62;100.00
10948;BME280;5526;42.070;24.752;2023-02-28T03:30:03;99641.66;;;9.61;100.00
10948;BME280;5526;42.070;24.752;2023-02-28T03:32:35;99643.72;;;9.59;100.00
10948;BME280;5526;42.070;24.752;2023-02-28T03:35:08;99636.06;;;9.57;100.00
10948;BME280;5526;42.070;24.752;2023-02-28T03:37:40;99632.09;;;9.55;100.00
10948;BME280;5526;42.070;24.752;2023-02-28T03:40:11;99637.78;;;9.52;100.00
10948;BME280;5526;42.070;24.752;2023-02-28T03:42:43;99634.03;;;9.48;100.00
10948;BME280;5526;42.070;24.752;2023-02-28T03:45:14;99643.63;;;9.54;100.00
10948;BME280;5526;42.070;24.752;2023-02-28T03:47:47;99650.16;;;9.51;100.00
10948;BME280;5526;42.070;24.752;2023-02-28T03:50:18;99653.44;;;9.47;100.00
10948;BME280;5526;42.070;24.752;2023-02-28T03:52:50;99648.09;;;9.42;100.00
10948;BME280;5526;42.070;24.752;2023-02-28T03:55:20;99652.31;;;9.31;100.00
10948;BME280;5526;42.070;24.752;2023-02-28T03:57:55;99657.56;;;9.31;100.00
10948;BME280;5526;42.070;24.752;2023-02-28T04:00:27;99649.25;;;9.23;100.00
10948;BME280;5526;42.070;24.752;2023-02-28T04:02:57;99662.81;;;9.20;100.00
10948;BME280;5526;42.070;24.752;2023-02-28T04:05:24;99674.91;;;9.09;100.00
10948;BME280;5526;42.070;24.752;2023-02-28T04:07:53;99673.31;;;9.08;100.00
10948;BME280;5526;42.070;24.752;2023-02-28T04:10:20;99681.88;;;9.04;100.00
10948;BME280;5526;42.070;24.752;2023-02-28T04:12:47;99688.38;;;9.01;100.00
10948;BME280;5526;42.070;24.752;2023-02-28T04:15:14;99687.78;;;8.88;100.00
10948;BME280;5526;42.070;24.752;2023-02-28T04:17:41;99686.63;;;8.83;100.00
10948;BME280;5526;42.070;24.752;2023-02-28T04:20:09;99688.34;;;8.89;100.00
10948;BME280;5526;42.070;24.752;2023-02-28T04:22:37;99689.16;;;8.90;100.00
10948;BME280;5526;42.070;24.752;2023-02-28T04:25:06;99684.38;;;8.99;100.00
10948;BME280;5526;42.070;24.752;2023-02-28T04:27:34;99672.03;;;8.88;100.00
10948;BME280;5526;42.070;24.752;2023-02-28T04:30:01;99687.00;;;8.99;100.00
10948;BME280;5526;42.070;24.752;2023-02-28T04:32:28;99691.78;;;9.02;100.00
10948;BME280;5526;42.070;24.752;2023-02-28T04:34:55;99685.75;;;9.01;100.00
10948;BME280;5526;42.070;24.752;2023-02-28T04:37:21;99683.03;;;9.08;100.00
10948;BME280;5526;42.070;24.752;2023-02-28T04:39:53;99684.16;;;9.00;100.00
10948;BME280;5526;42.070;24.752;2023-02-28T04:42:21;99683.34;;;9.00;100.00
10948;BME280;5526;42.070;24.752;2023-02-28T04:44:48;99685.63;;;8.96;100.00
10948;BME280;5526;42.070;24.752;2023-02-28T04:47:15;99676.28;;;9.00;100.00
10948;BME280;5526;42.070;24.752;2023-02-28T04:49:42;99683.03;;;9.08;100.00
10948;BME280;5526;42.070;24.752;2023-02-28T04:52:09;99683.25;;;9.06;100.00
10948;BME280;5526;42.070;24.752;2023-02-28T04:54:36;99678.22;;;9.05;100.00
10948;BME280;5526;42.070;24.752;2023-02-28T04:57:04;99684.16;;;9.12;100.00
10948;BME280;5526;42.070;24.752;2023-02-28T04:59:33;99685.41;;;9.09;100.00
10948;BME280;5526;42.070;24.752;2023-02-28T05:02:00;99691.13;;;9.06;100.00
10948;BME280;5526;42.070;24.752;2023-02-28T05:04:32;99691.34;;;9.05;100.00
10948;BME280;5526;42.070;24.752;2023-02-28T05:07:00;99700.91;;;8.99;100.00
10948;BME280;5526;42.070;24.752;2023-02-28T05:09:27;99700.69;;;9.01;100.00
10948;BME280;5526;42.070;24.752;2023-02-28T05:11:54;99690.53;;;8.93;100.00
10948;BME280;5526;42.070;24.752;2023-02-28T05:14:22;99714.63;;;9.01;100.00
10948;BME280;5526;42.070;24.752;2023-02-28T05:16:50;99718.03;;;9.02;100.00
10948;BME280;5526;42.070;24.752;2023-02-28T05:19:17;99716.00;;;9.04;100.00
10948;BME280;5526;42.070;24.752;2023-02-28T05:21:50;99710.41;;;9.00;100.00
10948;BME280;5526;42.070;24.752;2023-02-28T05:24:17;99718.84;;;9.02;100.00
10948;BME280;5526;42.070;24.752;2023-02-28T05:26:49;99724.22;;;9.07;100.00
10948;BME280;5526;42.070;24.752;2023-02-28T05:29:16;99733.00;;;9.01;100.00
10948;BME280;5526;42.070;24.752;2023-02-28T05:31:43;99728.78;;;9.00;100.00
10948;BME280;5526;42.070;24.752;2023-02-28T05:34:12;99728.69;;;9.07;100.00
10948;BME280;5526;42.070;24.752;2023-02-28T05:36:41;99743.63;;;9.06;100.00
10948;BME280;5526;42.070;24.752;2023-02-28T05:39:08;99748.34;;;9.16;100.00
10948;BME280;5526;42.070;24.752;2023-02-28T05:41:40;99755.53;;;9.20;100.00
10948;BME280;5526;42.070;24.752;2023-02-28T05:44:07;99756.22;;;9.27;100.00
10948;BME280;5526;42.070;24.752;2023-02-28T05:46:34;99757.25;;;9.26;100.00
10948;BME280;5526;42.070;24.752;2023-02-28T05:49:01;99753.38;;;9.29;100.00
10948;BME280;5526;42.070;24.752;2023-02-28T05:51:29;99752.38;;;9.30;100.00
10948;BME280;5526;42.070;24.752;2023-02-28T05:53:59;99745.59;;;9.11;100.00
10948;BME280;5526;42.070;24.752;2023-02-28T05:56:26;99754.03;;;9.13;100.00
10948;BME280;5526;42.070;24.752;2023-02-28T05:58:53;99759.97;;;9.20;100.00
10948;BME280;5526;42.070;24.752;2023-02-28T06:01:23;99763.88;;;9.29;100.00
10948;BME280;5526;42.070;24.752;2023-02-28T06:03:51;99767.31;;;9.29;100.00
10948;BME280;5526;42.070;24.752;2023-02-28T06:06:18;99770.28;;;9.33;100.00
10948;BME280;5526;42.070;24.752;2023-02-28T06:08:47;99768.47;;;9.45;100.00
10948;BME280;5526;42.070;24.752;2023-02-28T06:11:14;99770.88;;;9.46;100.00
10948;BME280;5526;42.070;24.752;2023-02-28T06:13:41;99770.66;;;9.48;100.00
10948;BME280;5526;42.070;24.752;2023-02-28T06:16:10;99772.38;;;9.54;100.00
10948;BME280;5526;42.070;24.752;2023-02-28T06:18:37;99779.22;;;9.66;100.00
10948;BME280;5526;42.070;24.752;2023-02-28T06:21:05;99778.66;;;9.64;100.00
10948;BME280;5526;42.070;24.752;2023-02-28T06:23:32;99779.81;;;9.68;100.00
10948;BME280;5526;42.070;24.752;2023-02-28T06:26:00;99770.56;;;9.66;100.00
10948;BME280;5526;42.070;24.752;2023-02-28T06:28:27;99788.03;;;9.72;100.00
10948;BME280;5526;42.070;24.752;2023-02-28T06:30:54;99785.97;;;9.74;100.00
10948;BME280;5526;42.070;24.752;2023-02-28T06:33:21;99789.75;;;9.78;100.00
10948;BME280;5526;42.070;24.752;2023-02-28T06:35:50;99797.28;;;9.86;100.00
10948;BME280;5526;42.070;24.752;2023-02-28T06:38:18;99799.22;;;9.79;100.00
10948;BME280;5526;42.070;24.752;2023-02-28T06:40:53;99787.03;;;9.73;100.00
10948;BME280;5526;42.070;24.752;2023-02-28T06:43:22;99796.25;;;9.87;100.00
10948;BME280;5526;42.070;24.752;2023-02-28T06:45:49;99788.72;;;10.02;100.00
10948;BME280;5526;42.070;24.752;2023-02-28T06:48:16;99788.03;;;9.95;100.00
10948;BME280;5526;42.070;24.752;2023-02-28T06:50:44;99794.41;;;9.99;100.00
10948;BME280;5526;42.070;24.752;2023-02-28T06:53:12;99781.19;;;10.05;100.00
10948;BME280;5526;42.070;24.752;2023-02-28T06:55:39;99794.78;;;10.14;100.00
10948;BME280;5526;42.070;24.752;2023-02-28T06:58:07;99791.81;;;10.22;100.00
10948;BME280;5526;42.070;24.752;2023-02-28T07:00:41;99795.25;;;10.11;100.00
10948;BME280;5526;42.070;24.752;2023-02-28T07:03:09;99802.91;;;10.12;100.00
10948;BME280;5526;42.070;24.752;2023-02-28T07:05:36;99796.84;;;10.23;100.00
10948;BME280;5526;42.070;24.752;2023-02-28T07:08:05;99797.28;;;10.32;100.00
10948;BME280;5526;42.070;24.752;2023-02-28T07:10:33;99792.63;;;10.22;100.00
10948;BME280;5526;42.070;24.752;2023-02-28T07:13:00;99802.88;;;10.35;100.00
10948;BME280;5526;42.070;24.752;2023-02-28T07:15:27;99802.50;;;10.43;100.00
10948;BME280;5526;42.070;24.752;2023-02-28T07:17:56;99804.69;;;10.46;100.00
10948;BME280;5526;42.070;24.752;2023-02-28T07:20:23;99810.41;;;10.43;100.00
10948;BME280;5526;42.070;24.752;2023-02-28T07:22:50;99807.09;;;10.48;100.00
10948;BME280;5526;42.070;24.752;2023-02-28T07:25:22;99807.28;;;10.58;100.00
10948;BME280;5526;42.070;24.752;2023-02-28T07:27:49;99813.72;;;10.39;100.00
10948;BME280;5526;42.070;24.752;2023-02-28T07:30:16;99808.34;;;10.45;100.00
10948;BME280;5526;42.070;24.752;2023-02-28T07:32:44;99812.72;;;10.40;100.00
10948;BME280;5526;42.070;24.752;2023-02-28T07:35:12;99812.78;;;10.56;100.00
10948;BME280;5526;42.070;24.752;2023-02-28T07:37:40;99813.94;;;10.49;100.00
10948;BME280;5526;42.070;24.752;2023-02-28T07:40:09;99818.09;;;11.01;100.00
10948;BME280;5526;42.070;24.752;2023-02-28T07:42:38;99802.88;;;10.75;100.00
10948;BME280;5526;42.070;24.752;2023-02-28T07:45:06;99814.34;;;10.69;100.00
10948;BME280;5526;42.070;24.752;2023-02-28T07:47:33;99812.47;;;10.81;100.00
10948;BME280;5526;42.070;24.752;2023-02-28T07:50:01;99817.88;;;10.74;100.00
10948;BME280;5526;42.070;24.752;2023-02-28T07:52:29;99815.38;;;10.68;100.00
10948;BME280;5526;42.070;24.752;2023-02-28T07:54:56;99821.09;;;10.65;100.00
10948;BME280;5526;42.070;24.752;2023-02-28T07:57:23;99820.06;;;10.66;100.00
10948;BME280;5526;42.070;24.752;2023-02-28T07:59:51;99821.47;;;10.57;100.00
10948;BME280;5526;42.070;24.752;2023-02-28T08:02:18;99823.66;;;10.60;100.00
10948;BME280;5526;42.070;24.752;2023-02-28T08:04:45;99820.34;;;10.53;100.00
10948;BME280;5526;42.070;24.752;2023-02-28T08:07:13;99821.59;;;10.50;100.00
10948;BME280;5526;42.070;24.752;2023-02-28T08:09:42;99831.69;;;10.42;100.00
10948;BME280;5526;42.070;24.752;2023-02-28T08:12:10;99835.34;;;10.41;100.00
10948;BME280;5526;42.070;24.752;2023-02-28T08:14:37;99842.22;;;10.42;100.00
10948;BME280;5526;42.070;24.752;2023-02-28T08:17:05;99827.09;;;10.49;100.00
10948;BME280;5526;42.070;24.752;2023-02-28T08:19:32;99824.00;;;10.52;100.00
10948;BME280;5526;42.070;24.752;2023-02-28T08:21:59;99825.59;;;10.53;100.00
10948;BME280;5526;42.070;24.752;2023-02-28T08:24:26;99820.03;;;10.38;100.00
10948;BME280;5526;42.070;24.752;2023-02-28T08:26:55;99809.84;;;10.30;100.00
10948;BME280;5526;42.070;24.752;2023-02-28T08:29:22;99820.47;;;10.46;100.00
10948;BME280;5526;42.070;24.752;2023-02-28T08:31:49;99819.88;;;10.56;100.00
10948;BME280;5526;42.070;24.752;2023-02-28T08:34:17;99821.91;;;10.65;100.00
10948;BME280;5526;42.070;24.752;2023-02-28T08:36:44;99824.13;;;10.85;100.00
10948;BME280;5526;42.070;24.752;2023-02-28T08:39:11;99829.38;;;10.96;100.00
10948;BME280;5526;42.070;24.752;2023-02-28T08:41:39;99825.84;;;10.91;100.00
10948;BME280;5526;42.070;24.752;2023-02-28T08:44:08;99832.56;;;10.98;100.00
10948;BME280;5526;42.070;24.752;2023-02-28T08:46:35;99831.00;;;11.14;100.00
10948;BME280;5526;42.070;24.752;2023-02-28T08:49:02;99828.00;;;10.94;100.00
10948;BME280;5526;42.070;24.752;2023-02-28T08:51:29;99831.78;;;10.86;100.00
10948;BME280;5526;42.070;24.752;2023-02-28T08:53:59;99831.41;;;11.06;100.00
10948;BME280;5526;42.070;24.752;2023-02-28T08:56:27;99837.53;;;10.83;100.00
10948;BME280;5526;42.070;24.752;2023-02-28T08:58:56;99841.94;;;11.06;100.00
10948;BME280;5526;42.070;24.752;2023-02-28T09:01:27;99841.78;;;11.12;100.00
10948;BME280;5526;42.070;24.752;2023-02-28T09:03:55;99840.03;;;11.18;100.00
10948;BME280;5526;42.070;24.752;2023-02-28T09:06:24;99830.41;;;11.23;100.00
10948;BME280;5526;42.070;24.752;2023-02-28T09:08:52;99835.56;;;11.18;100.00
10948;BME280;5526;42.070;24.752;2023-02-28T09:11:19;99835.00;;;11.16;100.00
10948;BME280;5526;42.070;24.752;2023-02-28T09:13:46;99830.81;;;11.04;100.00
10948;BME280;5526;42.070;24.752;2023-02-28T09:16:15;99820.94;;;11.11;100.00
10948;BME280;5526;42.070;24.752;2023-02-28T09:18:44;99835.97;;;11.27;100.00
10948;BME280;5526;42.070;24.752;2023-02-28T09:21:13;99833.84;;;11.40;100.00
10948;BME280;5526;42.070;24.752;2023-02-28T09:23:41;99818.78;;;11.08;100.00
10948;BME280;5526;42.070;24.752;2023-02-28T09:26:13;99822.91;;;11.04;100.00
10948;BME280;5526;42.070;24.752;2023-02-28T09:28:41;99823.88;;;10.98;100.00
10948;BME280;5526;42.070;24.752;2023-02-28T09:31:12;99819.22;;;11.05;100.00
10948;BME280;5526;42.070;24.752;2023-02-28T09:33:39;99818.16;;;10.89;100.00
10948;BME280;5526;42.070;24.752;2023-02-28T09:36:08;99816.19;;;11.24;100.00
10948;BME280;5526;42.070;24.752;2023-02-28T09:38:35;99818.56;;;11.42;100.00
10948;BME280;5526;42.070;24.752;2023-02-28T09:41:04;99817.16;;;12.17;100.00
10948;BME280;5526;42.070;24.752;2023-02-28T09:43:39;99806.91;;;12.42;100.00
10948;BME280;5526;42.070;24.752;2023-02-28T09:46:15;99817.22;;;12.06;100.00
10948;BME280;5526;42.070;24.752;2023-02-28T09:48:47;99813.13;;;11.77;100.00
10948;BME280;5526;42.070;24.752;2023-02-28T09:51:32;99818.84;;;11.41;100.00
10948;BME280;5526;42.070;24.752;2023-02-28T09:54:00;99811.47;;;11.43;100.00
10948;BME280;5526;42.070;24.752;2023-02-28T09:56:32;99791.50;;;11.47;100.00
10948;BME280;5526;42.070;24.752;2023-02-28T09:59:02;99800.78;;;11.49;100.00
10948;BME280;5526;42.070;24.752;2023-02-28T10:01:37;99788.53;;;11.27;100.00
10948;BME280;5526;42.070;24.752;2023-02-28T10:04:11;99791.59;;;11.52;100.00
10948;BME280;5526;42.070;24.752;2023-02-28T10:06:45;99800.38;;;11.41;100.00
10948;BME280;5526;42.070;24.752;2023-02-28T10:09:17;99793.84;;;11.43;100.00
10948;BME280;5526;42.070;24.752;2023-02-28T10:11:48;99787.50;;;11.28;100.00
10948;BME280;5526;42.070;24.752;2023-02-28T10:14:18;99787.38;;;11.84;100.00
10948;BME280;5526;42.070;24.752;2023-02-28T10:16:48;99791.91;;;11.39;100.00
10948;BME280;5526;42.070;24.752;2023-02-28T10:19:24;99779.59;;;11.11;100.00
10948;BME280;5526;42.070;24.752;2023-02-28T10:21:57;99783.84;;;10.84;100.00
10948;BME280;5526;42.070;24.752;2023-02-28T10:24:29;99787.25;;;10.85;100.00
10948;BME280;5526;42.070;24.752;2023-02-28T10:27:00;99779.34;;;10.96;100.00
10948;BME280;5526;42.070;24.752;2023-02-28T10:29:31;99777.34;;;10.75;100.00
10948;BME280;5526;42.070;24.752;2023-02-28T10:32:02;99776.78;;;11.01;100.00
10948;BME280;5526;42.070;24.752;2023-02-28T10:34:30;99780.50;;;10.89;100.00
10948;BME280;5526;42.070;24.752;2023-02-28T10:36:59;99772.44;;;10.95;100.00
10948;BME280;5526;42.070;24.752;2023-02-28T10:39:40;99772.50;;;10.84;100.00
10948;BME280;5526;42.070;24.752;2023-02-28T10:42:21;99763.75;;;10.95;100.00
10948;BME280;5526;42.070;24.752;2023-02-28T10:45:05;99782.59;;;11.03;100.00
10948;BME280;5526;42.070;24.752;2023-02-28T10:47:33;99766.31;;;10.90;100.00
10948;BME280;5526;42.070;24.752;2023-02-28T10:50:02;99772.06;;;10.75;100.00
10948;BME280;5526;42.070;24.752;2023-02-28T10:52:36;99773.06;;;10.58;100.00
10948;BME280;5526;42.070;24.752;2023-02-28T10:55:16;99776.00;;;10.33;100.00
10948;BME280;5526;42.070;24.752;2023-02-28T10:57:46;99771.06;;;10.37;100.00
10948;BME280;5526;42.070;24.752;2023-02-28T11:00:16;99759.28;;;10.39;100.00
10948;BME280;5526;42.070;24.752;2023-02-28T11:02:44;99764.03;;;10.54;100.00
10948;BME280;5526;42.070;24.752;2023-02-28T11:05:26;99763.88;;;10.60;100.00
10948;BME280;5526;42.070;24.752;2023-02-28T11:07:56;99763.19;;;10.65;100.00
10948;BME280;5526;42.070;24.752;2023-02-28T11:10:29;99761.69;;;10.69;100.00
10948;BME280;5526;42.070;24.752;2023-02-28T11:13:00;99762.50;;;10.69;100.00
10948;BME280;5526;42.070;24.752;2023-02-28T11:15:29;99755.69;;;10.57;100.00
10948;BME280;5526;42.070;24.752;2023-02-28T11:17:59;99765.94;;;10.98;100.00
10948;BME280;5526;42.070;24.752;2023-02-28T11:20:29;99756.66;;;10.67;100.00
10948;BME280;5526;42.070;24.752;2023-02-28T11:23:00;99743.13;;;10.47;100.00
10948;BME280;5526;42.070;24.752;2023-02-28T11:25:30;99745.75;;;10.47;100.00
10948;BME280;5526;42.070;24.752;2023-02-28T11:28:00;99749.06;;;10.54;100.00
10948;BME280;5526;42.070;24.752;2023-02-28T11:30:35;99736.50;;;10.45;100.00
10948;BME280;5526;42.070;24.752;2023-02-28T11:33:23;99747.34;;;10.48;100.00
10948;BME280;5526;42.070;24.752;2023-02-28T11:35:51;99758.38;;;10.62;100.00
10948;BME280;5526;42.070;24.752;2023-02-28T11:38:21;99740.41;;;10.42;100.00
10948;BME280;5526;42.070;24.752;2023-02-28T11:40:59;99743.53;;;10.28;100.00
10948;BME280;5526;42.070;24.752;2023-02-28T11:43:42;99743.25;;;10.41;100.00
10948;BME280;5526;42.070;24.752;2023-02-28T11:46:24;99745.25;;;10.22;100.00
10948;BME280;5526;42.070;24.752;2023-02-28T11:49:03;99752.94;;;10.24;100.00
10948;BME280;5526;42.070;24.752;2023-02-28T11:51:44;99738.06;;;10.18;100.00
10948;BME280;5526;42.070;24.752;2023-02-28T11:54:33;99744.22;;;10.23;100.00
10948;BME280;5526;42.070;24.752;2023-02-28T11:57:15;99739.47;;;10.09;100.00
10948;BME280;5526;42.070;24.752;2023-02-28T11:59:55;99741.50;;;10.07;100.00
10948;BME280;5526;42.070;24.752;2023-02-28T12:02:29;99743.13;;;10.08;100.00
10948;BME280;5526;42.070;24.752;2023-02-28T12:05:14;99729.59;;;10.04;100.00
10948;BME280;5526;42.070;24.752;2023-02-28T12:07:55;99733.31;;;10.87;100.00
10948;BME280;5526;42.070;24.752;2023-02-28T12:10:29;99730.00;;;10.36;100.00
10948;BME280;5526;42.070;24.752;2023-02-28T12:13:05;99727.44;;;10.13;100.00
10948;BME280;5526;42.070;24.752;2023-02-28T12:15:46;99728.13;;;10.08;100.00
10948;BME280;5526;42.070;24.752;2023-02-28T12:18:29;99726.28;;;9.97;100.00
10948;BME280;5526;42.070;24.752;2023-02-28T12:21:05;99726.50;;;9.96;100.00
10948;BME280;5526;42.070;24.752;2023-02-28T12:26:37;99731.22;;;9.82;100.00
10948;BME280;5526;42.070;24.752;2023-02-28T12:29:12;99728.47;;;9.77;100.00
10948;BME280;5526;42.070;24.752;2023-02-28T12:31:42;99722.53;;;9.82;100.00
10948;BME280;5526;42.070;24.752;2023-02-28T12:34:15;99727.34;;;9.85;100.00
10948;BME280;5526;42.070;24.752;2023-02-28T12:36:43;99725.50;;;9.85;100.00
10948;BME280;5526;42.070;24.752;2023-02-28T12:39:16;99724.94;;;9.83;100.00
10948;BME280;5526;42.070;24.752;2023-02-28T12:41:49;99725.72;;;9.84;100.00
10948;BME280;5526;42.070;24.752;2023-02-28T12:44:21;99713.63;;;9.83;100.00
10948;BME280;5526;42.070;24.752;2023-02-28T12:46:51;99716.84;;;9.85;100.00
10948;BME280;5526;42.070;24.752;2023-02-28T12:49:25;99707.22;;;9.79;100.00
10948;BME280;5526;42.070;24.752;2023-02-28T12:51:56;99708.03;;;9.79;100.00
10948;BME280;5526;42.070;24.752;2023-02-28T12:54:29;99717.97;;;9.77;100.00
10948;BME280;5526;42.070;24.752;2023-02-28T12:57:05;99709.31;;;9.77;100.00
10948;BME280;5526;42.070;24.752;2023-02-28T12:59:37;99709.31;;;9.77;100.00
10948;BME280;5526;42.070;24.752;2023-02-28T13:02:24;99716.16;;;9.78;100.00
10948;BME280;5526;42.070;24.752;2023-02-28T13:05:14;99711.16;;;9.65;100.00
10948;BME280;5526;42.070;24.752;2023-02-28T13:08:02;99703.94;;;9.60;100.00
10948;BME280;5526;42.070;24.752;2023-02-28T13:10:42;99711.25;;;9.58;100.00
10948;BME280;5526;42.070;24.752;2023-02-28T13:13:17;99716.16;;;9.55;100.00
10948;BME280;5526;42.070;24.752;2023-02-28T13:16:03;99694.00;;;9.51;100.00
10948;BME280;5526;42.070;24.752;2023-02-28T13:18:34;99692.75;;;9.53;100.00
10948;BME280;5526;42.070;24.752;2023-02-28T13:21:04;99703.25;;;9.65;100.00
10948;BME280;5526;42.070;24.752;2023-02-28T13:23:58;99717.06;;;9.60;100.00